Time;durP1;ratioP1;P1;durP2;ratioP2;P2;SDS_P1;SDS_P2;PMS_P1;PMS_P2;Temp;Humidity;BMP_temperature;BMP_pressure;BME280_temperature;BME280_humidity;BME280_pressure;Samples;Min_cycle;Max_cycle;Signal;HPM_P1;HPM_P2
2020/12/26 00:01:51;;;;;;;23.77;10.52;;;5.10;99.90;;;;;;5008195;28;20054;-78
2020/12/26 00:04:20;;;;;;;25.98;9.95;;;5.20;99.90;;;;;;5012993;28;20046;-79
2020/12/26 00:06:50;;;;;;;20.60;8.90;;;5.20;99.90;;;;;;4995820;28;20057;-77
2020/12/26 00:09:17;;;;;;;25.00;9.40;;;5.20;99.90;;;;;;5010322;28;20453;-78
2020/12/26 00:11:43;;;;;;;24.98;9.23;;;5.20;99.90;;;;;;4978738;28;20057;-78
2020/12/26 00:14:10;;;;;;;19.77;8.98;;;5.30;99.90;;;;;;5009841;28;20109;-78
2020/12/26 00:16:36;;;;;;;20.70;8.95;;;5.40;99.90;;;;;;4987306;28;20046;-78
2020/12/26 00:19:16;;;;;;;23.75;10.35;;;5.50;99.90;;;;;;5012897;28;20050;-79
2020/12/26 00:21:42;;;;;;;23.45;8.48;;;5.40;99.90;;;;;;5008890;28;20065;-78
2020/12/26 00:24:08;;;;;;;28.15;9.30;;;5.40;99.90;;;;;;4994427;28;20049;-78
2020/12/26 00:26:36;;;;;;;22.17;9.65;;;5.50;99.90;;;;;;5009530;28;21211;-79
2020/12/26 00:29:02;;;;;;;22.80;10.25;;;5.50;99.90;;;;;;5008029;28;20038;-78
2020/12/26 00:31:29;;;;;;;23.45;9.15;;;5.40;99.90;;;;;;5011035;28;20049;-77
2020/12/26 00:33:55;;;;;;;25.10;9.63;;;5.40;99.90;;;;;;5009175;28;20490;-78
2020/12/26 00:36:22;;;;;;;25.52;9.80;;;5.50;99.90;;;;;;5010044;28;20108;-79
2020/12/26 00:38:48;;;;;;;23.50;10.57;;;5.40;99.90;;;;;;5013271;28;20129;-79
2020/12/26 00:41:16;;;;;;;24.10;9.63;;;5.40;99.90;;;;;;5007307;28;20042;-78
2020/12/26 00:43:46;;;;;;;24.50;10.27;;;5.30;99.90;;;;;;5012807;28;20057;-79
2020/12/26 00:46:13;;;;;;;26.42;9.73;;;5.30;99.90;;;;;;5011173;28;20421;-78
2020/12/26 00:48:39;;;;;;;20.17;8.23;;;5.40;99.90;;;;;;5000941;28;20061;-78
2020/12/26 00:51:06;;;;;;;22.08;10.30;;;5.50;99.90;;;;;;5012251;28;20132;-78
2020/12/26 00:53:32;;;;;;;20.77;9.18;;;5.50;99.90;;;;;;5008498;28;20096;-78
2020/12/26 00:55:59;;;;;;;22.95;9.15;;;5.40;99.90;;;;;;5009072;28;20104;-78
2020/12/26 00:58:25;;;;;;;28.70;10.05;;;5.40;99.90;;;;;;4996849;28;20444;-79
2020/12/26 01:00:52;;;;;;;23.35;10.88;;;5.30;99.90;;;;;;4993227;28;20080;-79
2020/12/26 01:03:18;;;;;;;22.20;10.10;;;5.20;99.90;;;;;;5004994;28;20077;-78
2020/12/26 01:05:45;;;;;;;23.50;9.80;;;5.10;99.90;;;;;;5012310;28;20046;-80
2020/12/26 01:08:12;;;;;;;20.60;9.77;;;5.10;99.90;;;;;;4993500;28;20077;-79
2020/12/26 01:10:38;;;;;;;20.58;10.63;;;5.00;99.90;;;;;;5008947;28;20053;-78
2020/12/26 01:13:04;;;;;;;29.58;10.40;;;5.00;99.90;;;;;;5012369;28;20050;-79
2020/12/26 01:15:31;;;;;;;17.52;9.35;;;5.10;99.90;;;;;;5003034;28;20058;-78
2020/12/26 01:17:57;;;;;;;25.77;9.25;;;5.10;99.90;;;;;;5007595;28;20046;-78
2020/12/26 01:20:23;;;;;;;19.92;9.40;;;5.20;99.90;;;;;;4989550;28;20466;-78
2020/12/26 01:22:51;;;;;;;26.52;9.77;;;5.10;99.90;;;;;;4992907;28;20199;-79
2020/12/26 01:25:17;;;;;;;22.95;10.73;;;5.10;99.90;;;;;;4997720;28;20457;-78
2020/12/26 01:27:44;;;;;;;21.98;10.35;;;5.00;99.90;;;;;;5003069;28;20093;-78
2020/12/26 01:30:11;;;;;;;22.73;9.77;;;4.90;99.90;;;;;;4973210;28;20121;-79
2020/12/26 01:32:38;;;;;;;24.58;10.50;;;5.00;99.90;;;;;;4991392;28;20165;-78
2020/12/26 01:35:04;;;;;;;25.65;10.77;;;5.00;99.90;;;;;;4993621;28;20057;-80
2020/12/26 01:37:31;;;;;;;24.20;9.73;;;5.10;99.90;;;;;;4986111;28;20054;-78
2020/12/26 01:39:57;;;;;;;17.77;9.68;;;5.20;99.90;;;;;;4990948;28;20049;-78
2020/12/26 01:42:23;;;;;;;20.38;10.82;;;5.40;99.90;;;;;;4998443;28;20057;-77
2020/12/26 01:44:50;;;;;;;20.13;10.38;;;5.50;99.90;;;;;;5007268;28;20056;-78
2020/12/26 01:47:17;;;;;;;21.48;10.57;;;5.40;99.90;;;;;;5003660;28;20050;-78
2020/12/26 01:49:44;;;;;;;24.67;10.57;;;5.40;99.90;;;;;;5010394;28;20069;-78
2020/12/26 01:52:12;;;;;;;22.10;9.68;;;5.30;99.90;;;;;;5009603;28;20374;-78
2020/12/26 01:54:41;;;;;;;18.55;9.27;;;5.10;99.90;;;;;;5006249;28;20046;-79
2020/12/26 01:57:08;;;;;;;26.48;10.25;;;5.00;99.90;;;;;;5011920;28;20049;-78
2020/12/26 01:59:36;;;;;;;22.58;9.27;;;5.00;99.90;;;;;;5006485;28;20050;-78
2020/12/26 02:02:08;;;;;;;21.15;9.40;;;5.10;99.90;;;;;;5004547;28;20363;-78
2020/12/26 02:04:35;;;;;;;19.75;8.85;;;5.10;99.90;;;;;;5010486;28;20054;-79
2020/12/26 02:07:04;;;;;;;20.23;9.68;;;5.20;99.90;;;;;;4993289;28;20050;-78
2020/12/26 02:09:31;;;;;;;25.65;9.63;;;5.10;99.90;;;;;;5008596;28;20046;-78
2020/12/26 02:11:58;;;;;;;23.67;9.75;;;5.00;99.90;;;;;;5005744;28;20042;-78
2020/12/26 02:14:24;;;;;;;25.23;10.70;;;5.00;99.90;;;;;;5007809;28;20050;-78
2020/12/26 02:16:52;;;;;;;21.30;9.70;;;4.90;99.90;;;;;;5006372;28;20050;-79
2020/12/26 02:19:22;;;;;;;26.05;10.43;;;5.00;99.90;;;;;;5009582;28;20070;-78
2020/12/26 02:21:49;;;;;;;23.95;9.68;;;5.00;99.90;;;;;;5003275;28;20045;-78
2020/12/26 02:24:16;;;;;;;26.48;10.52;;;4.80;99.90;;;;;;4998627;28;20077;-77
2020/12/26 02:26:42;;;;;;;19.98;9.38;;;4.80;99.90;;;;;;4987882;28;20385;-78
2020/12/26 02:29:09;;;;;;;24.85;9.77;;;5.00;99.90;;;;;;4992418;28;20568;-78
2020/12/26 02:31:36;;;;;;;21.98;9.68;;;5.00;99.90;;;;;;4989900;28;20461;-79
2020/12/26 02:34:03;;;;;;;16.67;9.18;;;4.80;99.90;;;;;;4989834;28;20096;-78
2020/12/26 02:36:31;;;;;;;21.50;9.55;;;4.80;99.90;;;;;;4988532;28;20060;-78
2020/12/26 02:38:57;;;;;;;25.33;10.25;;;4.80;99.90;;;;;;5011410;28;20050;-78
2020/12/26 02:41:24;;;;;;;19.77;10.25;;;4.80;99.90;;;;;;4990422;28;20049;-78
2020/12/26 02:43:51;;;;;;;24.05;10.80;;;4.70;99.90;;;;;;4966556;28;20458;-77
2020/12/26 02:46:17;;;;;;;24.63;10.90;;;4.70;99.90;;;;;;5003704;28;20061;-78
2020/12/26 02:48:43;;;;;;;25.85;10.95;;;4.70;99.90;;;;;;5003054;28;20050;-79
2020/12/26 02:51:10;;;;;;;23.10;10.73;;;4.80;99.90;;;;;;5008701;28;20050;-78
2020/12/26 02:53:36;;;;;;;22.30;9.98;;;4.90;99.90;;;;;;5007599;28;20058;-76
2020/12/26 02:56:03;;;;;;;20.25;9.88;;;5.00;99.90;;;;;;4995292;28;20097;-78
2020/12/26 02:58:30;;;;;;;22.40;10.18;;;5.10;99.90;;;;;;5010046;28;20042;-79
2020/12/26 03:00:57;;;;;;;22.48;9.95;;;5.00;99.90;;;;;;4992825;28;20421;-78
2020/12/26 03:03:23;;;;;;;20.65;9.75;;;5.00;99.90;;;;;;4998213;28;20489;-78
2020/12/26 03:05:50;;;;;;;21.60;9.60;;;4.90;99.90;;;;;;5010534;28;20358;-78
2020/12/26 03:08:17;;;;;;;31.10;10.93;;;4.90;99.90;;;;;;4992134;28;20065;-78
2020/12/26 03:10:44;;;;;;;28.83;10.27;;;4.80;99.90;;;;;;5001055;28;20050;-79
2020/12/26 03:13:11;;;;;;;23.55;10.90;;;4.60;99.90;;;;;;5004338;28;20065;-79
2020/12/26 03:15:37;;;;;;;22.40;10.73;;;4.60;99.90;;;;;;4995907;28;20042;-77
2020/12/26 03:18:04;;;;;;;17.67;9.25;;;4.60;99.90;;;;;;5012282;28;20057;-78
2020/12/26 03:20:30;;;;;;;19.85;9.70;;;4.70;99.90;;;;;;5011313;28;20058;-79
2020/12/26 03:22:58;;;;;;;28.13;10.50;;;4.70;99.90;;;;;;5011464;28;20054;-78
2020/12/26 03:25:24;;;;;;;25.73;10.50;;;4.70;99.90;;;;;;5011694;28;20112;-78
2020/12/26 03:27:50;;;;;;;23.98;9.52;;;4.50;99.90;;;;;;5012984;28;20460;-78
2020/12/26 03:30:17;;;;;;;18.83;9.20;;;4.50;99.90;;;;;;5012588;28;20202;-78
2020/12/26 03:32:43;;;;;;;19.65;9.68;;;4.50;99.90;;;;;;4994894;28;20432;-78
2020/12/26 03:35:11;;;;;;;17.45;9.45;;;4.50;99.90;;;;;;5001577;28;20410;-79
2020/12/26 03:37:38;;;;;;;22.80;9.43;;;4.40;99.90;;;;;;4993433;28;20072;-79
2020/12/26 03:40:06;;;;;;;21.77;10.38;;;4.40;99.90;;;;;;5010554;28;20042;-79
2020/12/26 03:42:32;;;;;;;19.17;9.32;;;4.40;99.90;;;;;;4994552;28;20066;-78
2020/12/26 03:44:58;;;;;;;17.75;8.70;;;4.30;99.90;;;;;;5012109;28;20045;-78
2020/12/26 03:47:25;;;;;;;20.33;8.85;;;4.40;99.90;;;;;;5006910;28;20053;-78
2020/12/26 03:49:54;;;;;;;18.45;9.75;;;4.50;99.90;;;;;;5010812;28;20139;-79
2020/12/26 03:52:20;;;;;;;19.58;9.23;;;4.50;99.90;;;;;;4993985;28;20048;-77
2020/12/26 03:54:46;;;;;;;19.15;9.27;;;4.50;99.90;;;;;;5008836;28;20382;-78
2020/12/26 03:57:14;;;;;;;22.05;9.52;;;4.60;99.90;;;;;;5011796;28;20116;-79
2020/12/26 03:59:41;;;;;;;18.38;8.57;;;4.50;99.90;;;;;;4994670;28;20050;-78
2020/12/26 04:02:07;;;;;;;20.20;10.18;;;4.40;99.90;;;;;;4990683;28;20131;-79
2020/12/26 04:04:34;;;;;;;18.10;9.15;;;4.20;99.90;;;;;;5012286;28;20062;-78
2020/12/26 04:07:03;;;;;;;20.58;9.63;;;4.20;99.90;;;;;;4994044;28;20072;-77
2020/12/26 04:09:31;;;;;;;17.40;8.75;;;4.40;99.90;;;;;;5012193;28;20132;-78
2020/12/26 04:11:58;;;;;;;19.27;9.27;;;4.50;99.90;;;;;;5008177;28;20133;-78
2020/12/26 04:14:24;;;;;;;24.35;9.27;;;4.70;99.90;;;;;;5011283;28;20470;-78
2020/12/26 04:17:00;;;;;;;16.58;9.32;;;4.80;99.90;;;;;;5007083;28;20104;-78
2020/12/26 04:19:26;;;;;;;19.15;9.13;;;4.60;99.90;;;;;;5013453;28;20121;-78
2020/12/26 04:21:55;;;;;;;21.67;9.30;;;4.40;99.90;;;;;;4991847;28;20683;-78
2020/12/26 04:24:21;;;;;;;18.40;9.57;;;4.40;99.90;;;;;;5007573;28;20096;-78
2020/12/26 04:26:50;;;;;;;15.40;9.13;;;4.40;99.90;;;;;;5017860;28;20481;-78
2020/12/26 04:29:17;;;;;;;22.27;9.52;;;4.40;99.90;;;;;;4998659;28;20123;-78
2020/12/26 04:31:43;;;;;;;26.33;10.90;;;4.40;99.90;;;;;;5003499;28;20112;-78
2020/12/26 04:34:09;;;;;;;22.10;9.80;;;4.50;99.90;;;;;;4994252;28;20054;-78
2020/12/26 04:36:36;;;;;;;24.13;10.63;;;4.60;99.90;;;;;;4996024;28;20046;-78
2020/12/26 04:39:03;;;;;;;22.08;10.40;;;4.60;99.90;;;;;;5005709;28;20046;-78
2020/12/26 04:41:32;;;;;;;23.75;10.63;;;4.60;99.90;;;;;;5009641;28;20092;-78
2020/12/26 04:44:01;;;;;;;23.73;10.75;;;4.60;99.90;;;;;;4995019;28;20054;-79
2020/12/26 04:46:30;;;;;;;19.42;10.07;;;4.60;99.90;;;;;;4996462;28;20062;-78
2020/12/26 04:49:04;;;;;;;20.10;9.57;;;4.70;99.90;;;;;;5010364;28;20789;-78
2020/12/26 04:51:41;;;;;;;19.70;9.25;;;4.70;99.90;;;;;;4988867;28;20100;-77
2020/12/26 04:54:22;;;;;;;23.08;9.88;;;4.60;99.90;;;;;;5008603;28;20057;-78
2020/12/26 04:56:53;;;;;;;20.55;10.07;;;4.60;99.90;;;;;;4993788;28;20046;-78
2020/12/26 04:59:22;;;;;;;19.88;9.90;;;4.60;99.90;;;;;;5011881;28;20096;-77
2020/12/26 05:01:50;;;;;;;18.73;9.70;;;4.50;99.90;;;;;;5009243;28;20061;-78
2020/12/26 05:04:17;;;;;;;25.73;11.07;;;4.40;99.90;;;;;;4996107;28;20557;-78
2020/12/26 05:06:50;;;;;;;19.08;9.50;;;4.40;99.90;;;;;;4983310;28;20097;-78
2020/12/26 05:09:21;;;;;;;22.35;10.32;;;4.20;99.90;;;;;;5006705;28;20484;-77
2020/12/26 05:11:59;;;;;;;18.65;10.07;;;4.20;99.90;;;;;;5009038;28;20045;-77
2020/12/26 05:14:31;;;;;;;24.58;10.10;;;4.20;99.90;;;;;;5013169;28;20054;-77
2020/12/26 05:16:58;;;;;;;18.80;9.82;;;4.10;99.90;;;;;;5009010;28;20436;-78
2020/12/26 05:19:24;;;;;;;25.60;10.60;;;3.90;99.90;;;;;;5009960;28;20049;-77
2020/12/26 05:21:56;;;;;;;18.98;10.18;;;3.80;99.90;;;;;;5013533;28;20045;-77
2020/12/26 05:24:23;;;;;;;20.42;10.30;;;3.80;99.90;;;;;;5007375;28;20050;-78
2020/12/26 05:26:52;;;;;;;26.33;10.45;;;3.90;99.90;;;;;;5002278;28;20053;-78
2020/12/26 05:29:20;;;;;;;26.85;10.60;;;3.80;99.90;;;;;;5013682;28;20077;-78
2020/12/26 05:31:55;;;;;;;26.77;11.55;;;3.80;99.90;;;;;;4990422;28;20456;-78
2020/12/26 05:34:41;;;;;;;20.92;10.50;;;3.80;99.90;;;;;;4999665;28;20481;-78
2020/12/26 05:37:08;;;;;;;21.30;10.07;;;3.80;99.90;;;;;;4994533;28;20046;-77
2020/12/26 05:39:36;;;;;;;24.13;10.73;;;4.00;99.90;;;;;;4991790;28;20583;-77
2020/12/26 05:42:06;;;;;;;17.98;10.63;;;4.10;99.90;;;;;;4980764;28;20052;-78
2020/12/26 05:44:36;;;;;;;27.48;11.63;;;4.10;99.90;;;;;;4995150;28;20069;-79
2020/12/26 05:47:05;;;;;;;22.77;10.73;;;4.10;99.90;;;;;;4988447;28;20482;-78
2020/12/26 05:49:35;;;;;;;26.53;10.70;;;4.00;99.90;;;;;;4997952;28;20454;-78
2020/12/26 05:52:23;;;;;;;21.02;9.75;;;4.00;99.90;;;;;;4991786;28;20046;-78
2020/12/26 05:54:51;;;;;;;21.10;8.88;;;4.00;99.90;;;;;;4991615;28;20046;-78
2020/12/26 05:57:19;;;;;;;21.52;9.73;;;4.10;99.90;;;;;;5011206;28;20360;-78
2020/12/26 05:59:54;;;;;;;22.25;10.75;;;4.20;99.90;;;;;;4992042;28;20041;-77
2020/12/26 06:02:24;;;;;;;18.25;9.75;;;4.20;99.90;;;;;;4992870;28;20367;-77
2020/12/26 06:04:56;;;;;;;16.27;8.00;;;4.20;99.90;;;;;;4993666;28;20056;-78
2020/12/26 06:07:26;;;;;;;16.20;7.80;;;3.90;99.90;;;;;;5001533;28;20065;-77
2020/12/26 06:09:57;;;;;;;19.35;7.18;;;4.00;99.90;;;;;;5003606;28;20050;-78
2020/12/26 06:12:25;;;;;;;18.33;7.20;;;4.10;99.90;;;;;;4993483;28;20145;-77
2020/12/26 06:14:52;;;;;;;13.50;6.95;;;4.20;99.90;;;;;;5008614;28;20050;-78
2020/12/26 06:17:29;;;;;;;13.75;7.15;;;4.40;99.90;;;;;;4996986;28;20043;-78
2020/12/26 06:20:07;;;;;;;16.58;7.13;;;4.40;99.90;;;;;;5011465;28;20107;-78
2020/12/26 06:22:47;;;;;;;14.63;7.53;;;4.50;99.90;;;;;;5009400;28;20057;-78
2020/12/26 06:25:19;;;;;;;16.20;7.43;;;4.40;99.90;;;;;;5007820;28;20513;-78
2020/12/26 06:27:59;;;;;;;18.30;7.70;;;4.20;99.90;;;;;;4996296;28;20118;-78
2020/12/26 06:30:26;;;;;;;19.35;7.57;;;4.20;99.90;;;;;;5004636;28;20041;-78
2020/12/26 06:32:54;;;;;;;11.48;6.28;;;4.30;99.90;;;;;;4989710;28;20532;-78
2020/12/26 06:35:21;;;;;;;16.35;7.63;;;4.00;99.90;;;;;;5000743;28;20124;-78
2020/12/26 06:38:08;;;;;;;17.38;7.43;;;4.10;99.90;;;;;;4993067;28;20444;-77
2020/12/26 06:40:34;;;;;;;18.95;8.38;;;4.30;99.90;;;;;;5002781;28;20104;-77
2020/12/26 06:43:01;;;;;;;20.05;7.70;;;4.30;99.90;;;;;;5012175;28;20080;-77
2020/12/26 06:45:39;;;;;;;17.85;7.63;;;4.30;99.90;;;;;;5006000;28;20046;-77
2020/12/26 06:48:07;;;;;;;20.50;7.55;;;4.40;99.90;;;;;;4992466;28;20050;-78
2020/12/26 06:50:34;;;;;;;14.40;7.00;;;4.30;99.90;;;;;;5010346;28;20053;-77
2020/12/26 06:53:01;;;;;;;14.15;6.70;;;4.30;99.90;;;;;;4991180;28;20046;-77
2020/12/26 06:55:40;;;;;;;15.13;6.97;;;4.30;99.90;;;;;;5006669;28;20052;-78
2020/12/26 06:58:25;;;;;;;15.95;6.75;;;4.30;99.90;;;;;;5010865;28;20481;-78
2020/12/26 07:00:51;;;;;;;11.32;6.95;;;4.30;99.90;;;;;;4986104;28;20104;-77
2020/12/26 07:03:31;;;;;;;22.63;7.57;;;4.30;99.90;;;;;;4999059;28;20054;-77
2020/12/26 07:05:58;;;;;;;15.15;7.75;;;4.40;99.90;;;;;;5009089;28;20058;-77
2020/12/26 07:08:34;;;;;;;16.85;6.95;;;4.30;99.90;;;;;;4988695;28;20046;-78
2020/12/26 07:11:03;;;;;;;20.75;7.90;;;4.10;99.90;;;;;;4991334;28;20038;-78
2020/12/26 07:13:51;;;;;;;19.42;8.30;;;4.20;99.90;;;;;;5012270;28;20529;-78
2020/12/26 07:16:36;;;;;;;16.13;7.93;;;4.40;99.90;;;;;;4994216;28;20431;-78
2020/12/26 07:19:23;;;;;;;15.75;8.10;;;4.20;99.90;;;;;;4991502;28;20501;-78
2020/12/26 07:21:52;;;;;;;24.00;8.90;;;4.20;99.90;;;;;;5010116;28;20053;-78
2020/12/26 07:24:24;;;;;;;23.75;8.85;;;4.10;99.90;;;;;;5009230;28;20390;-78
2020/12/26 07:26:52;;;;;;;19.05;8.38;;;4.00;99.90;;;;;;5006150;28;20482;-78
2020/12/26 07:29:26;;;;;;;16.58;8.18;;;4.00;99.90;;;;;;5009766;28;20054;-78
2020/12/26 07:31:55;;;;;;;18.67;8.15;;;3.90;99.90;;;;;;5000452;28;20050;-78
2020/12/26 07:34:39;;;;;;;16.63;7.85;;;4.10;99.90;;;;;;5006031;28;20038;-77
2020/12/26 07:37:06;;;;;;;19.35;8.13;;;4.10;99.90;;;;;;5006934;28;20092;-79
2020/12/26 07:39:33;;;;;;;14.65;8.27;;;4.10;99.90;;;;;;4993158;28;20112;-78
2020/12/26 07:41:59;;;;;;;13.70;7.45;;;4.10;99.90;;;;;;4991268;28;20049;-77
2020/12/26 07:44:28;;;;;;;19.10;7.70;;;4.00;99.90;;;;;;4991292;28;20086;-78
2020/12/26 07:46:55;;;;;;;17.60;8.43;;;4.00;99.90;;;;;;5007657;28;20062;-78
2020/12/26 07:49:24;;;;;;;17.63;8.40;;;4.10;99.90;;;;;;4991405;28;20559;-77
2020/12/26 07:52:07;;;;;;;24.48;8.88;;;4.00;99.90;;;;;;5011392;28;20124;-78
2020/12/26 07:54:34;;;;;;;16.38;8.27;;;4.10;99.90;;;;;;5008299;28;20077;-79
2020/12/26 07:57:02;;;;;;;19.83;9.38;;;4.30;99.90;;;;;;4992497;28;20081;-79
2020/12/26 07:59:28;;;;;;;20.73;7.63;;;4.40;99.90;;;;;;5005705;28;20042;-78
2020/12/26 08:01:56;;;;;;;20.33;7.85;;;4.30;99.90;;;;;;5007931;28;20073;-79
2020/12/26 08:04:23;;;;;;;17.50;7.93;;;4.30;99.90;;;;;;5003036;28;20092;-78
2020/12/26 08:06:50;;;;;;;14.15;6.80;;;4.30;99.90;;;;;;4992165;28;20485;-77
2020/12/26 08:09:17;;;;;;;16.20;6.60;;;4.30;99.90;;;;;;4999145;28;20108;-77
2020/12/26 08:11:45;;;;;;;16.23;6.53;;;4.50;99.90;;;;;;5011670;28;20054;-77
2020/12/26 08:14:13;;;;;;;15.93;5.88;;;4.40;99.90;;;;;;5012628;28;20053;-79
2020/12/26 08:16:40;;;;;;;11.45;5.40;;;4.30;99.90;;;;;;5009960;28;20046;-78
2020/12/26 08:19:07;;;;;;;6.90;4.05;;;3.80;99.90;;;;;;5001912;28;20610;-78
2020/12/26 08:21:33;;;;;;;14.80;5.28;;;3.60;99.90;;;;;;5011400;28;20054;-78
2020/12/26 08:24:03;;;;;;;18.65;6.00;;;3.70;99.90;;;;;;5013371;28;20066;-78
2020/12/26 08:26:31;;;;;;;;;;;3.80;99.90;;;;;;4996392;28;20459;-78
2020/12/26 08:29:00;;;;;;;14.38;5.50;;;3.90;99.90;;;;;;5011366;28;19972;-79
2020/12/26 08:31:29;;;;;;;10.32;5.35;;;4.00;99.90;;;;;;4993900;28;20093;-77
2020/12/26 08:34:14;;;;;;;15.80;5.88;;;4.20;99.90;;;;;;5011629;28;20536;-78
2020/12/26 08:36:49;;;;;;;11.77;5.85;;;4.20;99.90;;;;;;5012860;28;20046;-78
2020/12/26 08:39:18;;;;;;;12.93;5.97;;;4.20;99.90;;;;;;4995526;28;20053;-78
2020/12/26 08:41:46;;;;;;;15.98;5.55;;;4.40;99.90;;;;;;5010510;28;20049;-77
2020/12/26 08:44:13;;;;;;;14.20;5.30;;;4.40;99.90;;;;;;4995255;28;20096;-79
2020/12/26 08:46:44;;;;;;;10.60;5.25;;;4.50;99.90;;;;;;4994497;28;20096;-78
2020/12/26 08:49:12;;;;;;;14.55;5.32;;;4.60;99.90;;;;;;4993748;28;20057;-78
2020/12/26 08:51:41;;;;;;;13.38;5.40;;;4.80;99.90;;;;;;5002742;28;20050;-78
2020/12/26 08:54:22;;;;;;;14.30;5.53;;;4.60;99.90;;;;;;4985020;28;20046;-78
2020/12/26 08:56:48;;;;;;;;;;;4.50;99.90;;;;;;5010615;28;20092;-78
2020/12/26 08:59:29;;;;;;;12.43;4.93;;;4.60;99.90;;;;;;4994320;28;19921;-78
2020/12/26 09:01:55;;;;;;;;;;;4.30;99.90;;;;;;5007239;28;20046;-78
2020/12/26 09:04:23;;;;;;;12.75;5.05;;;4.40;99.90;;;;;;5009266;28;19929;-77
2020/12/26 09:06:49;;;;;;;16.35;5.70;;;4.50;99.90;;;;;;4993411;28;20050;-78
2020/12/26 09:09:20;;;;;;;12.57;5.55;;;4.60;99.90;;;;;;5011073;28;20494;-77
2020/12/26 09:11:58;;;;;;;12.05;5.93;;;4.60;99.90;;;;;;4991655;28;20049;-78
2020/12/26 09:14:25;;;;;;;14.35;5.78;;;4.90;99.90;;;;;;5008194;28;20046;-78
2020/12/26 09:17:41;;;;;;;16.75;5.93;;;4.80;99.90;;;;;;5009859;28;20092;-78
2020/12/26 09:20:07;;;;;;;12.52;5.70;;;4.70;99.90;;;;;;4991603;28;20050;-78
2020/12/26 09:22:34;;;;;;;7.65;4.55;;;5.10;99.90;;;;;;5010973;28;20057;-78
2020/12/26 09:25:26;;;;;;;10.05;5.20;;;5.30;99.90;;;;;;5008039;28;20045;-78
2020/12/26 09:28:04;;;;;;;12.45;6.07;;;5.10;99.90;;;;;;4994091;28;20438;-78
2020/12/26 09:30:31;;;;;;;11.95;5.90;;;5.40;99.90;;;;;;4993780;28;20057;-79
2020/12/26 09:32:58;;;;;;;10.93;5.55;;;5.70;99.90;;;;;;4993393;28;20096;-78
2020/12/26 09:35:24;;;;;;;13.57;5.30;;;4.90;99.90;;;;;;5010060;28;20117;-79
2020/12/26 09:37:54;;;;;;;11.48;5.78;;;5.30;99.90;;;;;;5010009;28;20042;-79
2020/12/26 09:40:29;;;;;;;14.25;5.25;;;5.50;99.90;;;;;;5009665;28;20049;-79
2020/12/26 09:42:56;;;;;;;17.30;5.65;;;5.30;99.90;;;;;;4993136;28;20092;-78
2020/12/26 09:45:22;;;;;;;16.30;5.18;;;5.50;99.90;;;;;;5011640;28;20053;-79
2020/12/26 09:47:56;;;;;;;14.50;5.97;;;5.10;99.90;;;;;;5008740;28;20445;-79
2020/12/26 09:50:26;;;;;;;13.02;4.88;;;5.40;99.90;;;;;;4995613;28;20046;-79
2020/12/26 09:52:52;;;;;;;14.05;5.43;;;5.20;99.90;;;;;;5009851;28;20050;-78
2020/12/26 09:55:26;;;;;;;13.82;5.45;;;5.30;99.90;;;;;;4994726;28;20603;-79
2020/12/26 09:57:52;;;;;;;12.50;5.45;;;5.60;99.90;;;;;;4993432;28;20069;-78
2020/12/26 10:00:18;;;;;;;12.13;5.15;;;5.70;99.90;;;;;;4989155;28;20042;-78
2020/12/26 10:02:45;;;;;;;12.80;5.13;;;5.50;99.90;;;;;;4993616;28;20045;-78
2020/12/26 10:05:11;;;;;;;13.63;4.97;;;5.50;99.90;;;;;;5008037;28;20057;-78
2020/12/26 10:07:38;;;;;;;14.50;5.40;;;5.60;99.90;;;;;;5009175;28;20054;-78
2020/12/26 10:10:04;;;;;;;11.02;5.50;;;5.80;99.90;;;;;;4994803;28;20096;-78
2020/12/26 10:12:31;;;;;;;10.43;5.45;;;5.90;99.90;;;;;;5003483;28;20046;-78
2020/12/26 10:14:58;;;;;;;12.43;5.38;;;6.00;99.90;;;;;;4982676;28;20052;-78
2020/12/26 10:17:24;;;;;;;11.38;5.40;;;5.90;99.90;;;;;;5013009;28;20440;-78
2020/12/26 10:19:51;;;;;;;12.80;5.75;;;5.60;99.90;;;;;;4992488;28;20127;-78
2020/12/26 10:22:18;;;;;;;16.30;5.90;;;5.70;99.90;;;;;;4998942;28;20100;-78
2020/12/26 10:24:44;;;;;;;16.60;5.45;;;5.90;99.90;;;;;;5011577;28;20054;-78
2020/12/26 10:27:10;;;;;;;12.27;5.68;;;6.00;99.90;;;;;;5006113;28;20062;-77
2020/12/26 10:29:37;;;;;;;19.15;5.97;;;6.40;99.90;;;;;;4998057;28;20062;-78
2020/12/26 10:32:04;;;;;;;12.65;5.40;;;6.50;99.90;;;;;;5009654;28;20489;-78
2020/12/26 10:34:31;;;;;;;12.07;6.20;;;6.60;99.90;;;;;;5008706;28;20469;-78
2020/12/26 10:36:57;;;;;;;13.60;5.53;;;7.00;98.80;;;;;;4990952;28;20050;-79
2020/12/26 10:39:24;;;;;;;15.77;5.78;;;6.70;98.30;;;;;;5004387;28;20150;-78
2020/12/26 10:41:50;;;;;;;15.10;5.47;;;6.40;99.30;;;;;;5005120;28;20111;-78
2020/12/26 10:44:17;;;;;;;13.98;5.20;;;6.40;98.80;;;;;;4994303;28;20049;-78
2020/12/26 10:46:46;;;;;;;13.02;5.32;;;6.20;99.00;;;;;;5010606;28;20046;-78
2020/12/26 10:49:12;;;;;;;14.57;4.80;;;6.00;99.50;;;;;;5004523;28;20054;-78
2020/12/26 10:51:38;;;;;;;10.80;4.75;;;6.20;99.80;;;;;;5009112;28;20046;-78
2020/12/26 10:54:05;;;;;;;13.40;4.97;;;6.00;99.50;;;;;;5007890;28;20425;-78
2020/12/26 10:56:31;;;;;;;9.60;4.78;;;6.30;99.80;;;;;;4991130;28;20434;-79
2020/12/26 10:58:57;;;;;;;9.45;4.40;;;6.20;98.90;;;;;;4994886;28;20096;-79
2020/12/26 11:01:46;;;;;;;12.00;5.13;;;6.40;99.10;;;;;;5008366;28;20093;-78
2020/12/26 11:04:13;;;;;;;15.30;5.95;;;6.70;98.50;;;;;;5002729;28;20050;-78
2020/12/26 11:06:39;;;;;;;11.60;4.97;;;6.40;98.70;;;;;;5008006;28;20456;-79
2020/12/26 11:09:05;;;;;;;12.52;5.10;;;6.40;99.00;;;;;;4992493;28;20121;-79
2020/12/26 11:11:32;;;;;;;12.48;5.20;;;6.20;99.20;;;;;;5010616;28;20116;-78
2020/12/26 11:13:58;;;;;;;10.77;5.18;;;6.10;99.50;;;;;;5008388;28;20429;-77
2020/12/26 11:16:27;;;;;;;13.40;4.78;;;6.20;99.40;;;;;;4997177;28;20062;-78
2020/12/26 11:18:53;;;;;;;11.70;5.35;;;6.40;99.50;;;;;;5005865;28;20478;-78
2020/12/26 11:21:20;;;;;;;12.65;4.95;;;6.30;98.80;;;;;;4990919;28;20449;-78
2020/12/26 11:23:46;;;;;;;14.00;5.35;;;6.20;99.30;;;;;;4993490;28;20887;-78
2020/12/26 11:26:25;;;;;;;17.90;6.18;;;6.30;99.90;;;;;;4993662;28;20061;-78
2020/12/26 11:28:51;;;;;;;11.15;6.50;;;6.70;98.50;;;;;;4990664;28;20046;-78
2020/12/26 11:31:24;;;;;;;17.20;6.00;;;6.90;98.70;;;;;;5011024;28;20061;-78
2020/12/26 11:33:51;;;;;;;16.63;6.78;;;6.80;98.40;;;;;;5002543;28;20049;-78
2020/12/26 11:36:26;;;;;;;16.75;6.97;;;7.00;98.30;;;;;;4991018;28;20042;-79
2020/12/26 11:38:53;;;;;;;14.55;6.40;;;7.10;97.80;;;;;;4994907;28;20096;-78
2020/12/26 11:41:26;;;;;;;12.70;5.45;;;7.30;97.70;;;;;;4996122;28;20428;-78
2020/12/26 11:43:54;;;;;;;13.93;5.30;;;7.10;97.80;;;;;;5011524;28;20073;-78
2020/12/26 11:46:22;;;;;;;14.65;5.40;;;6.70;97.70;;;;;;4992220;28;20485;-78
2020/12/26 11:48:49;;;;;;;18.65;5.70;;;6.80;98.20;;;;;;5009396;28;20539;-78
2020/12/26 11:51:15;;;;;;;10.95;4.45;;;6.30;97.80;;;;;;5003547;28;20058;-78
2020/12/26 11:53:42;;;;;;;10.82;5.35;;;6.10;97.80;;;;;;4991453;28;20062;-78
2020/12/26 11:56:10;;;;;;;14.00;5.20;;;6.20;98.10;;;;;;5007130;28;20050;-77
2020/12/26 11:58:37;;;;;;;10.45;5.20;;;6.30;97.80;;;;;;5013870;28;20116;-78
2020/12/26 12:01:05;;;;;;;10.35;4.63;;;6.20;98.40;;;;;;5013346;28;20080;-79
2020/12/26 12:03:33;;;;;;;11.63;4.78;;;6.40;98.40;;;;;;5007673;28;20473;-78
2020/12/26 12:06:03;;;;;;;9.80;4.82;;;6.50;98.20;;;;;;5014929;28;20053;-79
2020/12/26 12:08:31;;;;;;;10.05;5.00;;;6.70;98.40;;;;;;4993542;28;20102;-78
2020/12/26 12:10:58;;;;;;;9.48;4.78;;;6.50;98.20;;;;;;4987955;28;20116;-78
2020/12/26 12:13:24;;;;;;;10.00;5.20;;;6.70;98.60;;;;;;5014486;28;20049;-78
2020/12/26 12:15:50;;;;;;;8.75;5.05;;;6.70;98.10;;;;;;4996202;28;20425;-77
2020/12/26 12:18:17;;;;;;;13.45;5.40;;;6.70;98.30;;;;;;4986571;28;20057;-78
2020/12/26 12:20:45;;;;;;;10.10;5.15;;;6.70;98.00;;;;;;5006914;28;20047;-78
2020/12/26 12:23:11;;;;;;;9.43;4.82;;;6.90;98.70;;;;;;4990419;28;20054;-78
2020/12/26 12:25:39;;;;;;;11.73;5.18;;;7.00;98.30;;;;;;4991387;28;20050;-78
2020/12/26 12:28:06;;;;;;;10.40;4.82;;;6.90;97.90;;;;;;4993166;28;20386;-78
2020/12/26 12:30:32;;;;;;;8.20;4.90;;;6.80;97.70;;;;;;4994578;28;20543;-78
2020/12/26 12:32:59;;;;;;;12.10;5.20;;;6.60;97.70;;;;;;4997069;28;20053;-78
2020/12/26 12:35:25;;;;;;;8.25;4.40;;;6.70;98.00;;;;;;5011015;28;20421;-78
2020/12/26 12:37:52;;;;;;;11.65;5.85;;;6.60;97.80;;;;;;5012467;28;20042;-78
2020/12/26 12:40:18;;;;;;;9.60;5.63;;;6.50;97.90;;;;;;5010632;28;20065;-77
2020/12/26 12:42:46;;;;;;;12.43;5.13;;;6.40;98.20;;;;;;5011222;28;20066;-78
2020/12/26 12:45:12;;;;;;;10.48;5.38;;;6.40;98.70;;;;;;4997058;28;20058;-78
2020/12/26 12:47:39;;;;;;;10.93;5.07;;;6.50;98.50;;;;;;5006444;28;20073;-78
2020/12/26 12:50:08;;;;;;;12.02;5.55;;;6.70;98.90;;;;;;4994942;28;20058;-77
2020/12/26 12:52:35;;;;;;;14.63;5.35;;;6.70;98.90;;;;;;4996801;28;20077;-78
2020/12/26 12:55:51;;;;;;;14.45;5.68;;;6.60;98.60;;;;;;5010894;28;20069;-80